sensor_id;sensor_type;location;lat;lon;timestamp;temperature;humidity
11399;DHT22;5755;48.116;11.608;2024-01-07T00:01:59;2.50;99.90
11399;DHT22;5755;48.116;11.608;2024-01-07T00:04:26;2.40;99.90
11399;DHT22;5755;48.116;11.608;2024-01-07T00:06:53;2.40;99.90
11399;DHT22;5755;48.116;11.608;2024-01-07T00:09:21;2.40;99.90
11399;DHT22;5755;48.116;11.608;2024-01-07T00:11:48;2.30;99.90
11399;DHT22;5755;48.116;11.608;2024-01-07T00:14:15;2.30;99.90
11399;DHT22;5755;48.116;11.608;2024-01-07T00:16:42;2.30;99.90
11399;DHT22;5755;48.116;11.608;2024-01-07T00:19:09;2.30;99.90
11399;DHT22;5755;48.116;11.608;2024-01-07T00:21:36;2.30;99.90
11399;DHT22;5755;48.116;11.608;2024-01-07T00:24:02;2.40;99.90
11399;DHT22;5755;48.116;11.608;2024-01-07T00:26:31;2.40;99.90
11399;DHT22;5755;48.116;11.608;2024-01-07T00:28:57;2.40;99.90
11399;DHT22;5755;48.116;11.608;2024-01-07T00:31:25;2.40;99.90
11399;DHT22;5755;48.116;11.608;2024-01-07T00:33:52;2.50;99.90
11399;DHT22;5755;48.116;11.608;2024-01-07T00:36:19;2.40;99.90
11399;DHT22;5755;48.116;11.608;2024-01-07T00:38:46;2.40;99.90
11399;DHT22;5755;48.116;11.608;2024-01-07T00:41:13;2.40;99.90
11399;DHT22;5755;48.116;11.608;2024-01-07T00:43:41;2.40;99.90
11399;DHT22;5755;48.116;11.608;2024-01-07T00:46:07;2.40;99.90
11399;DHT22;5755;48.116;11.608;2024-01-07T00:48:34;2.40;99.90
11399;DHT22;5755;48.116;11.608;2024-01-07T00:51:01;2.40;99.90
11399;DHT22;5755;48.116;11.608;2024-01-07T00:53:28;2.40;99.90
11399;DHT22;5755;48.116;11.608;2024-01-07T00:55:54;2.50;99.90
11399;DHT22;5755;48.116;11.608;2024-01-07T00:58:21;2.40;99.90
11399;DHT22;5755;48.116;11.608;2024-01-07T01:00:49;2.40;99.90
11399;DHT22;5755;48.116;11.608;2024-01-07T01:03:16;2.40;99.90
11399;DHT22;5755;48.116;11.608;2024-01-07T01:05:43;2.40;99.90
11399;DHT22;5755;48.116;11.608;2024-01-07T01:08:09;2.40;99.90
11399;DHT22;5755;48.116;11.608;2024-01-07T01:10:36;2.40;99.90
11399;DHT22;5755;48.116;11.608;2024-01-07T01:13:03;2.50;99.90
11399;DHT22;5755;48.116;11.608;2024-01-07T01:15:30;2.40;99.90
11399;DHT22;5755;48.116;11.608;2024-01-07T01:17:58;2.30;99.90
11399;DHT22;5755;48.116;11.608;2024-01-07T01:20:25;2.30;99.90
11399;DHT22;5755;48.116;11.608;2024-01-07T01:22:52;2.20;99.90
11399;DHT22;5755;48.116;11.608;2024-01-07T01:25:18;2.30;99.90
11399;DHT22;5755;48.116;11.608;2024-01-07T01:27:46;2.40;99.90
11399;DHT22;5755;48.116;11.608;2024-01-07T01:30:12;2.40;99.90
11399;DHT22;5755;48.116;11.608;2024-01-07T01:32:39;2.40;99.90
11399;DHT22;5755;48.116;11.608;2024-01-07T01:35:09;2.30;99.90
11399;DHT22;5755;48.116;11.608;2024-01-07T01:37:35;2.40;99.90
11399;DHT22;5755;48.116;11.608;2024-01-07T01:40:03;2.50;99.90
11399;DHT22;5755;48.116;11.608;2024-01-07T01:42:30;2.60;99.90
11399;DHT22;5755;48.116;11.608;2024-01-07T01:44:57;2.40;99.90
11399;DHT22;5755;48.116;11.608;2024-01-07T01:47:27;2.40;99.90
11399;DHT22;5755;48.116;11.608;2024-01-07T01:49:53;2.40;99.90
11399;DHT22;5755;48.116;11.608;2024-01-07T01:52:21;2.40;99.90
11399;DHT22;5755;48.116;11.608;2024-01-07T01:54:49;2.40;99.90
11399;DHT22;5755;48.116;11.608;2024-01-07T01:57:19;2.30;99.90
11399;DHT22;5755;48.116;11.608;2024-01-07T01:59:48;2.20;99.90
11399;DHT22;5755;48.116;11.608;2024-01-07T02:02:15;2.30;99.90
11399;DHT22;5755;48.116;11.608;2024-01-07T02:04:42;2.30;99.90
11399;DHT22;5755;48.116;11.608;2024-01-07T02:07:09;2.30;99.90
11399;DHT22;5755;48.116;11.608;2024-01-07T02:09:37;2.30;99.90
11399;DHT22;5755;48.116;11.608;2024-01-07T02:12:06;2.30;99.90
11399;DHT22;5755;48.116;11.608;2024-01-07T02:14:37;2.20;99.90
11399;DHT22;5755;48.116;11.608;2024-01-07T02:17:04;2.20;99.90
11399;DHT22;5755;48.116;11.608;2024-01-07T02:19:30;2.30;99.90
11399;DHT22;5755;48.116;11.608;2024-01-07T02:21:57;2.30;99.90
11399;DHT22;5755;48.116;11.608;2024-01-07T02:24:25;2.40;99.90
11399;DHT22;5755;48.116;11.608;2024-01-07T02:26:52;2.50;99.90
11399;DHT22;5755;48.116;11.608;2024-01-07T02:29:19;2.30;99.90
11399;DHT22;5755;48.116;11.608;2024-01-07T02:31:45;2.40;99.90
11399;DHT22;5755;48.116;11.608;2024-01-07T02:34:12;2.30;99.90
11399;DHT22;5755;48.116;11.608;2024-01-07T02:36:39;2.20;99.90
11399;DHT22;5755;48.116;11.608;2024-01-07T02:39:06;2.10;99.90
11399;DHT22;5755;48.116;11.608;2024-01-07T02:41:34;2.10;99.90
11399;DHT22;5755;48.116;11.608;2024-01-07T02:44:00;2.20;99.90
11399;DHT22;5755;48.116;11.608;2024-01-07T02:46:27;2.10;99.90
11399;DHT22;5755;48.116;11.608;2024-01-07T02:48:54;2.20;99.90
11399;DHT22;5755;48.116;11.608;2024-01-07T02:51:21;2.20;99.90
11399;DHT22;5755;48.116;11.608;2024-01-07T02:53:47;2.20;99.90
11399;DHT22;5755;48.116;11.608;2024-01-07T02:56:14;2.30;99.90
11399;DHT22;5755;48.116;11.608;2024-01-07T02:58:42;2.30;99.90
11399;DHT22;5755;48.116;11.608;2024-01-07T03:01:09;2.40;99.90
11399;DHT22;5755;48.116;11.608;2024-01-07T03:03:36;2.30;99.90
11399;DHT22;5755;48.116;11.608;2024-01-07T03:06:03;2.30;99.90
11399;DHT22;5755;48.116;11.608;2024-01-07T03:08:30;2.30;99.90
11399;DHT22;5755;48.116;11.608;2024-01-07T03:10:57;2.30;99.90
11399;DHT22;5755;48.116;11.608;2024-01-07T03:13:23;2.40;99.90
11399;DHT22;5755;48.116;11.608;2024-01-07T03:15:51;2.50;99.90
11399;DHT22;5755;48.116;11.608;2024-01-07T03:18:18;2.50;99.90
11399;DHT22;5755;48.116;11.608;2024-01-07T03:20:45;2.50;99.90
11399;DHT22;5755;48.116;11.608;2024-01-07T03:23:11;2.40;99.90
11399;DHT22;5755;48.116;11.608;2024-01-07T03:25:38;2.50;99.90
11399;DHT22;5755;48.116;11.608;2024-01-07T03:28:05;2.50;99.90
11399;DHT22;5755;48.116;11.608;2024-01-07T03:30:32;2.50;99.90
11399;DHT22;5755;48.116;11.608;2024-01-07T03:33:00;2.40;99.90
11399;DHT22;5755;48.116;11.608;2024-01-07T03:35:27;2.30;99.90
11399;DHT22;5755;48.116;11.608;2024-01-07T03:37:54;2.30;99.90
11399;DHT22;5755;48.116;11.608;2024-01-07T03:40:21;2.40;99.90
11399;DHT22;5755;48.116;11.608;2024-01-07T03:42:47;2.50;99.90
11399;DHT22;5755;48.116;11.608;2024-01-07T03:45:14;2.50;99.90
11399;DHT22;5755;48.116;11.608;2024-01-07T03:47:41;2.40;99.90
11399;DHT22;5755;48.116;11.608;2024-01-07T03:50:09;2.40;99.90
11399;DHT22;5755;48.116;11.608;2024-01-07T03:52:35;2.50;99.90
11399;DHT22;5755;48.116;11.608;2024-01-07T03:55:03;2.50;99.90
11399;DHT22;5755;48.116;11.608;2024-01-07T03:57:29;2.50;99.90
11399;DHT22;5755;48.116;11.608;2024-01-07T03:59:56;2.50;99.90
11399;DHT22;5755;48.116;11.608;2024-01-07T04:02:23;2.50;99.90
11399;DHT22;5755;48.116;11.608;2024-01-07T04:04:49;2.50;99.90
11399;DHT22;5755;48.116;11.608;2024-01-07T04:07:18;2.60;99.90
11399;DHT22;5755;48.116;11.608;2024-01-07T04:09:44;2.60;99.90
11399;DHT22;5755;48.116;11.608;2024-01-07T04:12:11;2.70;99.90
11399;DHT22;5755;48.116;11.608;2024-01-07T04:14:38;2.60;99.90
11399;DHT22;5755;48.116;11.608;2024-01-07T04:17:05;2.60;99.90
11399;DHT22;5755;48.116;11.608;2024-01-07T04:19:33;2.60;99.90
11399;DHT22;5755;48.116;11.608;2024-01-07T04:22:02;2.50;99.90
11399;DHT22;5755;48.116;11.608;2024-01-07T04:24:31;2.50;99.90
11399;DHT22;5755;48.116;11.608;2024-01-07T04:26:57;2.50;99.90
11399;DHT22;5755;48.116;11.608;2024-01-07T04:29:24;2.50;99.90
11399;DHT22;5755;48.116;11.608;2024-01-07T04:31:51;2.50;99.90
11399;DHT22;5755;48.116;11.608;2024-01-07T04:34:17;2.50;99.90
11399;DHT22;5755;48.116;11.608;2024-01-07T04:36:44;2.50;99.90
11399;DHT22;5755;48.116;11.608;2024-01-07T04:39:11;2.50;99.90
11399;DHT22;5755;48.116;11.608;2024-01-07T04:41:39;2.50;99.90
11399;DHT22;5755;48.116;11.608;2024-01-07T04:44:06;2.50;99.90
11399;DHT22;5755;48.116;11.608;2024-01-07T04:46:34;2.50;99.90
11399;DHT22;5755;48.116;11.608;2024-01-07T04:49:01;2.50;99.90
11399;DHT22;5755;48.116;11.608;2024-01-07T04:51:27;2.50;99.90
11399;DHT22;5755;48.116;11.608;2024-01-07T04:53:53;2.50;99.90
11399;DHT22;5755;48.116;11.608;2024-01-07T04:56:20;2.40;99.90
11399;DHT22;5755;48.116;11.608;2024-01-07T04:58:48;2.40;99.90
11399;DHT22;5755;48.116;11.608;2024-01-07T05:01:15;2.50;99.90
11399;DHT22;5755;48.116;11.608;2024-01-07T05:03:42;2.50;99.90
11399;DHT22;5755;48.116;11.608;2024-01-07T05:06:09;2.60;99.90
11399;DHT22;5755;48.116;11.608;2024-01-07T05:08:36;2.70;99.90
11399;DHT22;5755;48.116;11.608;2024-01-07T05:11:03;2.70;99.90
11399;DHT22;5755;48.116;11.608;2024-01-07T05:13:30;2.70;99.90
11399;DHT22;5755;48.116;11.608;2024-01-07T05:15:58;2.70;99.90
11399;DHT22;5755;48.116;11.608;2024-01-07T05:18:25;2.50;99.90
11399;DHT22;5755;48.116;11.608;2024-01-07T05:20:52;2.50;99.90
11399;DHT22;5755;48.116;11.608;2024-01-07T05:23:19;2.50;99.90
11399;DHT22;5755;48.116;11.608;2024-01-07T05:25:46;2.50;99.90
11399;DHT22;5755;48.116;11.608;2024-01-07T05:28:13;2.50;99.90
11399;DHT22;5755;48.116;11.608;2024-01-07T05:30:43;2.50;99.90
11399;DHT22;5755;48.116;11.608;2024-01-07T05:33:11;2.50;99.90
11399;DHT22;5755;48.116;11.608;2024-01-07T05:35:38;2.40;99.90
11399;DHT22;5755;48.116;11.608;2024-01-07T05:38:05;2.30;99.90
11399;DHT22;5755;48.116;11.608;2024-01-07T05:40:31;2.30;99.90
11399;DHT22;5755;48.116;11.608;2024-01-07T05:42:58;2.30;99.90
11399;DHT22;5755;48.116;11.608;2024-01-07T05:45:25;2.30;99.90
11399;DHT22;5755;48.116;11.608;2024-01-07T05:47:52;2.30;99.90
11399;DHT22;5755;48.116;11.608;2024-01-07T05:50:20;2.40;99.90
11399;DHT22;5755;48.116;11.608;2024-01-07T05:52:46;2.50;99.90
11399;DHT22;5755;48.116;11.608;2024-01-07T05:55:13;2.50;99.90
11399;DHT22;5755;48.116;11.608;2024-01-07T05:57:40;2.50;99.90
11399;DHT22;5755;48.116;11.608;2024-01-07T06:00:08;2.40;99.90
11399;DHT22;5755;48.116;11.608;2024-01-07T06:02:37;2.40;99.90
11399;DHT22;5755;48.116;11.608;2024-01-07T06:05:05;2.50;99.90
11399;DHT22;5755;48.116;11.608;2024-01-07T06:07:33;2.60;99.90
11399;DHT22;5755;48.116;11.608;2024-01-07T06:10:00;2.70;99.90
11399;DHT22;5755;48.116;11.608;2024-01-07T06:12:27;2.80;99.90
11399;DHT22;5755;48.116;11.608;2024-01-07T06:14:54;2.70;99.90
11399;DHT22;5755;48.116;11.608;2024-01-07T06:17:21;2.80;99.90
11399;DHT22;5755;48.116;11.608;2024-01-07T06:19:48;2.60;99.90
11399;DHT22;5755;48.116;11.608;2024-01-07T06:22:14;2.60;99.90
11399;DHT22;5755;48.116;11.608;2024-01-07T06:24:43;2.50;99.90
11399;DHT22;5755;48.116;11.608;2024-01-07T06:27:09;2.50;99.90
11399;DHT22;5755;48.116;11.608;2024-01-07T06:29:36;2.50;99.90
11399;DHT22;5755;48.116;11.608;2024-01-07T06:32:03;2.50;99.90
11399;DHT22;5755;48.116;11.608;2024-01-07T06:34:30;2.40;99.90
11399;DHT22;5755;48.116;11.608;2024-01-07T06:36:58;2.40;99.90
11399;DHT22;5755;48.116;11.608;2024-01-07T06:39:25;2.40;99.90
11399;DHT22;5755;48.116;11.608;2024-01-07T06:41:54;2.30;99.90
11399;DHT22;5755;48.116;11.608;2024-01-07T06:44:21;2.50;99.90
11399;DHT22;5755;48.116;11.608;2024-01-07T06:46:48;2.50;99.90
11399;DHT22;5755;48.116;11.608;2024-01-07T06:49:14;2.30;99.90
11399;DHT22;5755;48.116;11.608;2024-01-07T06:51:41;2.30;99.90
11399;DHT22;5755;48.116;11.608;2024-01-07T06:54:08;2.30;99.90
11399;DHT22;5755;48.116;11.608;2024-01-07T06:56:35;2.30;99.90
11399;DHT22;5755;48.116;11.608;2024-01-07T06:59:03;2.50;99.90
11399;DHT22;5755;48.116;11.608;2024-01-07T07:01:30;2.50;99.90
11399;DHT22;5755;48.116;11.608;2024-01-07T07:03:56;2.30;99.90
11399;DHT22;5755;48.116;11.608;2024-01-07T07:06:23;2.30;99.90
11399;DHT22;5755;48.116;11.608;2024-01-07T07:08:50;2.50;99.90
11399;DHT22;5755;48.116;11.608;2024-01-07T07:11:23;2.40;99.90
11399;DHT22;5755;48.116;11.608;2024-01-07T07:13:50;2.30;99.90
11399;DHT22;5755;48.116;11.608;2024-01-07T07:16:18;2.20;99.90
11399;DHT22;5755;48.116;11.608;2024-01-07T07:18:45;2.20;99.90
11399;DHT22;5755;48.116;11.608;2024-01-07T07:21:12;2.20;99.90
11399;DHT22;5755;48.116;11.608;2024-01-07T07:23:38;2.20;99.90
11399;DHT22;5755;48.116;11.608;2024-01-07T07:26:05;2.10;99.90
11399;DHT22;5755;48.116;11.608;2024-01-07T07:28:33;2.10;99.90
11399;DHT22;5755;48.116;11.608;2024-01-07T07:31:00;2.20;99.90
11399;DHT22;5755;48.116;11.608;2024-01-07T07:33:28;2.20;99.90
11399;DHT22;5755;48.116;11.608;2024-01-07T07:35:55;2.10;99.90
11399;DHT22;5755;48.116;11.608;2024-01-07T07:38:22;2.10;99.90
11399;DHT22;5755;48.116;11.608;2024-01-07T07:40:49;2.20;99.90
11399;DHT22;5755;48.116;11.608;2024-01-07T07:43:18;2.20;99.90
11399;DHT22;5755;48.116;11.608;2024-01-07T07:45:45;2.10;99.90
11399;DHT22;5755;48.116;11.608;2024-01-07T07:48:11;2.10;99.90
11399;DHT22;5755;48.116;11.608;2024-01-07T07:50:39;2.10;99.90
11399;DHT22;5755;48.116;11.608;2024-01-07T07:53:06;2.20;99.90
11399;DHT22;5755;48.116;11.608;2024-01-07T07:55:33;2.30;99.90
11399;DHT22;5755;48.116;11.608;2024-01-07T07:58:00;2.20;99.90
11399;DHT22;5755;48.116;11.608;2024-01-07T08:00:28;2.30;99.90
11399;DHT22;5755;48.116;11.608;2024-01-07T08:02:54;2.20;99.90
11399;DHT22;5755;48.116;11.608;2024-01-07T08:05:21;2.20;99.90
11399;DHT22;5755;48.116;11.608;2024-01-07T08:07:49;2.10;99.90
11399;DHT22;5755;48.116;11.608;2024-01-07T08:10:16;2.20;99.90
11399;DHT22;5755;48.116;11.608;2024-01-07T08:12:43;2.10;99.90
11399;DHT22;5755;48.116;11.608;2024-01-07T08:15:10;2.10;99.90
11399;DHT22;5755;48.116;11.608;2024-01-07T08:17:37;2.10;99.90
11399;DHT22;5755;48.116;11.608;2024-01-07T08:20:05;2.00;99.90
11399;DHT22;5755;48.116;11.608;2024-01-07T08:22:32;2.00;99.90
11399;DHT22;5755;48.116;11.608;2024-01-07T08:25:00;2.00;99.90
11399;DHT22;5755;48.116;11.608;2024-01-07T08:27:27;2.10;99.90
11399;DHT22;5755;48.116;11.608;2024-01-07T08:29:54;2.20;99.90
11399;DHT22;5755;48.116;11.608;2024-01-07T08:32:21;2.10;99.90
11399;DHT22;5755;48.116;11.608;2024-01-07T08:34:49;2.20;99.90
11399;DHT22;5755;48.116;11.608;2024-01-07T08:37:20;2.10;99.90
11399;DHT22;5755;48.116;11.608;2024-01-07T08:39:46;2.10;99.90
11399;DHT22;5755;48.116;11.608;2024-01-07T08:42:14;2.30;99.90
11399;DHT22;5755;48.116;11.608;2024-01-07T08:44:41;2.30;99.90
11399;DHT22;5755;48.116;11.608;2024-01-07T08:47:08;2.30;99.90
11399;DHT22;5755;48.116;11.608;2024-01-07T08:49:35;2.30;99.90
11399;DHT22;5755;48.116;11.608;2024-01-07T08:52:04;2.30;99.90
11399;DHT22;5755;48.116;11.608;2024-01-07T08:54:31;2.30;99.90
11399;DHT22;5755;48.116;11.608;2024-01-07T08:57:02;2.10;99.90
11399;DHT22;5755;48.116;11.608;2024-01-07T08:59:30;2.10;99.90
11399;DHT22;5755;48.116;11.608;2024-01-07T09:01:59;2.10;99.90
11399;DHT22;5755;48.116;11.608;2024-01-07T09:04:25;2.10;99.90
11399;DHT22;5755;48.116;11.608;2024-01-07T09:06:52;2.20;99.90
11399;DHT22;5755;48.116;11.608;2024-01-07T09:09:19;2.20;99.90
11399;DHT22;5755;48.116;11.608;2024-01-07T09:11:46;2.10;99.90
11399;DHT22;5755;48.116;11.608;2024-01-07T09:14:13;2.10;99.90
11399;DHT22;5755;48.116;11.608;2024-01-07T09:16:41;2.10;99.90
11399;DHT22;5755;48.116;11.608;2024-01-07T09:19:08;2.10;99.90
11399;DHT22;5755;48.116;11.608;2024-01-07T09:21:34;2.20;99.90
11399;DHT22;5755;48.116;11.608;2024-01-07T09:24:01;2.10;99.90
11399;DHT22;5755;48.116;11.608;2024-01-07T09:26:28;2.10;99.90
11399;DHT22;5755;48.116;11.608;2024-01-07T09:28:55;2.10;99.90
11399;DHT22;5755;48.116;11.608;2024-01-07T09:31:21;2.10;99.90
11399;DHT22;5755;48.116;11.608;2024-01-07T09:33:50;2.10;99.90
11399;DHT22;5755;48.116;11.608;2024-01-07T09:36:16;2.20;99.90
11399;DHT22;5755;48.116;11.608;2024-01-07T09:38:43;2.20;99.90
11399;DHT22;5755;48.116;11.608;2024-01-07T09:41:10;2.20;99.90
11399;DHT22;5755;48.116;11.608;2024-01-07T09:43:37;2.20;99.90
11399;DHT22;5755;48.116;11.608;2024-01-07T09:46:03;2.20;99.90
11399;DHT22;5755;48.116;11.608;2024-01-07T09:48:30;2.30;99.90
11399;DHT22;5755;48.116;11.608;2024-01-07T09:51:01;2.20;99.90
11399;DHT22;5755;48.116;11.608;2024-01-07T09:53:30;2.10;99.90
11399;DHT22;5755;48.116;11.608;2024-01-07T09:56:04;2.20;99.90
11399;DHT22;5755;48.116;11.608;2024-01-07T09:58:33;2.10;99.90
11399;DHT22;5755;48.116;11.608;2024-01-07T10:01:00;2.20;99.90
11399;DHT22;5755;48.116;11.608;2024-01-07T10:03:26;2.20;99.90
11399;DHT22;5755;48.116;11.608;2024-01-07T10:05:53;2.20;99.90
11399;DHT22;5755;48.116;11.608;2024-01-07T10:08:22;2.30;99.90
11399;DHT22;5755;48.116;11.608;2024-01-07T10:10:48;2.30;99.90
11399;DHT22;5755;48.116;11.608;2024-01-07T10:13:15;2.20;99.90
11399;DHT22;5755;48.116;11.608;2024-01-07T10:15:42;2.30;99.90
11399;DHT22;5755;48.116;11.608;2024-01-07T10:18:09;2.30;99.90
11399;DHT22;5755;48.116;11.608;2024-01-07T10:20:35;2.40;99.90
11399;DHT22;5755;48.116;11.608;2024-01-07T10:23:04;2.40;99.90
11399;DHT22;5755;48.116;11.608;2024-01-07T10:25:35;2.40;99.90
11399;DHT22;5755;48.116;11.608;2024-01-07T10:28:03;2.50;99.90
11399;DHT22;5755;48.116;11.608;2024-01-07T10:30:29;2.50;99.90
11399;DHT22;5755;48.116;11.608;2024-01-07T10:32:57;2.60;99.90
11399;DHT22;5755;48.116;11.608;2024-01-07T10:35:28;2.50;99.90
11399;DHT22;5755;48.116;11.608;2024-01-07T10:37:55;2.60;99.90
11399;DHT22;5755;48.116;11.608;2024-01-07T10:40:23;2.50;99.90
11399;DHT22;5755;48.116;11.608;2024-01-07T10:42:54;2.40;99.90
11399;DHT22;5755;48.116;11.608;2024-01-07T10:45:21;2.50;99.90
11399;DHT22;5755;48.116;11.608;2024-01-07T10:47:49;2.50;99.90
11399;DHT22;5755;48.116;11.608;2024-01-07T10:50:17;2.60;99.90
11399;DHT22;5755;48.116;11.608;2024-01-07T10:52:49;2.70;99.90
11399;DHT22;5755;48.116;11.608;2024-01-07T10:55:18;2.60;99.90
11399;DHT22;5755;48.116;11.608;2024-01-07T10:57:47;2.60;99.90
11399;DHT22;5755;48.116;11.608;2024-01-07T11:00:17;2.60;99.90
11399;DHT22;5755;48.116;11.608;2024-01-07T11:02:55;2.60;99.90
11399;DHT22;5755;48.116;11.608;2024-01-07T11:05:29;2.50;99.90
11399;DHT22;5755;48.116;11.608;2024-01-07T11:08:01;2.50;99.90
11399;DHT22;5755;48.116;11.608;2024-01-07T11:10:34;2.50;99.90
11399;DHT22;5755;48.116;11.608;2024-01-07T11:13:04;2.50;99.90
11399;DHT22;5755;48.116;11.608;2024-01-07T11:15:53;2.50;99.90
11399;DHT22;5755;48.116;11.608;2024-01-07T11:18:21;2.30;99.90
11399;DHT22;5755;48.116;11.608;2024-01-07T11:20:53;2.20;99.90
11399;DHT22;5755;48.116;11.608;2024-01-07T11:23:30;2.20;99.90
11399;DHT22;5755;48.116;11.608;2024-01-07T11:25:58;2.30;99.90
11399;DHT22;5755;48.116;11.608;2024-01-07T11:28:48;2.20;99.90
11399;DHT22;5755;48.116;11.608;2024-01-07T11:31:18;2.20;99.90
11399;DHT22;5755;48.116;11.608;2024-01-07T11:33:46;2.10;99.90
11399;DHT22;5755;48.116;11.608;2024-01-07T11:36:13;2.00;99.90
11399;DHT22;5755;48.116;11.608;2024-01-07T11:38:44;2.10;99.90
11399;DHT22;5755;48.116;11.608;2024-01-07T11:41:12;2.10;99.90
11399;DHT22;5755;48.116;11.608;2024-01-07T11:43:52;2.20;99.90
11399;DHT22;5755;48.116;11.608;2024-01-07T11:46:21;2.10;99.90
11399;DHT22;5755;48.116;11.608;2024-01-07T11:48:48;2.10;99.90
11399;DHT22;5755;48.116;11.608;2024-01-07T11:51:15;2.10;99.90
11399;DHT22;5755;48.116;11.608;2024-01-07T11:53:45;2.10;99.90
11399;DHT22;5755;48.116;11.608;2024-01-07T11:56:12;2.00;99.90
11399;DHT22;5755;48.116;11.608;2024-01-07T11:58:40;1.90;99.90
11399;DHT22;5755;48.116;11.608;2024-01-07T12:01:07;2.00;99.90
11399;DHT22;5755;48.116;11.608;2024-01-07T12:03:35;2.10;99.90
11399;DHT22;5755;48.116;11.608;2024-01-07T12:06:02;2.10;99.90
11399;DHT22;5755;48.116;11.608;2024-01-07T12:08:29;2.20;99.90
11399;DHT22;5755;48.116;11.608;2024-01-07T12:10:56;2.30;99.90
11399;DHT22;5755;48.116;11.608;2024-01-07T12:13:23;2.30;99.90
11399;DHT22;5755;48.116;11.608;2024-01-07T12:15:50;2.30;99.90
11399;DHT22;5755;48.116;11.608;2024-01-07T12:18:17;2.30;99.90
11399;DHT22;5755;48.116;11.608;2024-01-07T12:20:56;2.30;99.90
11399;DHT22;5755;48.116;11.608;2024-01-07T12:23:24;2.20;99.90
11399;DHT22;5755;48.116;11.608;2024-01-07T12:26:06;2.10;99.90
11399;DHT22;5755;48.116;11.608;2024-01-07T12:28:33;2.10;99.90
11399;DHT22;5755;48.116;11.608;2024-01-07T12:31:00;2.00;99.90
11399;DHT22;5755;48.116;11.608;2024-01-07T12:33:28;1.80;99.90
11399;DHT22;5755;48.116;11.608;2024-01-07T12:35:57;2.00;99.90
11399;DHT22;5755;48.116;11.608;2024-01-07T12:38:24;2.00;99.90
11399;DHT22;5755;48.116;11.608;2024-01-07T12:40:51;2.00;99.90
11399;DHT22;5755;48.116;11.608;2024-01-07T12:43:18;2.10;99.90
11399;DHT22;5755;48.116;11.608;2024-01-07T12:45:45;2.10;99.90
11399;DHT22;5755;48.116;11.608;2024-01-07T12:48:13;2.10;99.90
11399;DHT22;5755;48.116;11.608;2024-01-07T12:50:39;2.10;99.90
11399;DHT22;5755;48.116;11.608;2024-01-07T12:53:07;2.00;99.90
11399;DHT22;5755;48.116;11.608;2024-01-07T12:55:34;1.90;99.90
11399;DHT22;5755;48.116;11.608;2024-01-07T12:58:01;1.90;99.90
11399;DHT22;5755;48.116;11.608;2024-01-07T13:00:28;1.70;99.90
11399;DHT22;5755;48.116;11.608;2024-01-07T13:02:55;1.80;99.90
11399;DHT22;5755;48.116;11.608;2024-01-07T13:05:22;1.80;99.90
11399;DHT22;5755;48.116;11.608;2024-01-07T13:07:49;1.80;99.90
11399;DHT22;5755;48.116;11.608;2024-01-07T13:10:20;1.70;99.90
11399;DHT22;5755;48.116;11.608;2024-01-07T13:12:47;1.70;99.90
11399;DHT22;5755;48.116;11.608;2024-01-07T13:15:13;1.80;99.90
11399;DHT22;5755;48.116;11.608;2024-01-07T13:17:40;1.70;99.90
11399;DHT22;5755;48.116;11.608;2024-01-07T13:20:08;1.70;99.90
11399;DHT22;5755;48.116;11.608;2024-01-07T13:22:36;1.50;99.90
11399;DHT22;5755;48.116;11.608;2024-01-07T13:25:04;1.50;99.90
11399;DHT22;5755;48.116;11.608;2024-01-07T13:27:32;1.40;99.90
11399;DHT22;5755;48.116;11.608;2024-01-07T13:30:00;1.40;99.90
11399;DHT22;5755;48.116;11.608;2024-01-07T13:32:27;1.30;99.90
11399;DHT22;5755;48.116;11.608;2024-01-07T13:34:53;1.40;99.90
11399;DHT22;5755;48.116;11.608;2024-01-07T13:37:20;1.30;99.90
11399;DHT22;5755;48.116;11.608;2024-01-07T13:39:47;1.40;99.90
11399;DHT22;5755;48.116;11.608;2024-01-07T13:42:14;1.30;99.90
11399;DHT22;5755;48.116;11.608;2024-01-07T13:44:42;1.20;99.90
11399;DHT22;5755;48.116;11.608;2024-01-07T13:47:12;1.10;99.90
11399;DHT22;5755;48.116;11.608;2024-01-07T13:49:39;1.20;99.90
11399;DHT22;5755;48.116;11.608;2024-01-07T13:52:06;1.20;99.90
11399;DHT22;5755;48.116;11.608;2024-01-07T13:54:33;1.10;99.90
11399;DHT22;5755;48.116;11.608;2024-01-07T13:56:59;1.20;99.90
11399;DHT22;5755;48.116;11.608;2024-01-07T13:59:26;1.20;99.90
11399;DHT22;5755;48.116;11.608;2024-01-07T14:01:55;1.20;99.90
11399;DHT22;5755;48.116;11.608;2024-01-07T14:04:23;1.20;99.90
11399;DHT22;5755;48.116;11.608;2024-01-07T14:06:53;1.30;99.90
11399;DHT22;5755;48.116;11.608;2024-01-07T14:09:20;1.30;99.90
11399;DHT22;5755;48.116;11.608;2024-01-07T14:11:47;1.40;99.90
11399;DHT22;5755;48.116;11.608;2024-01-07T14:14:14;1.30;99.90
11399;DHT22;5755;48.116;11.608;2024-01-07T14:16:41;1.20;99.90
11399;DHT22;5755;48.116;11.608;2024-01-07T14:19:09;1.20;99.90
11399;DHT22;5755;48.116;11.608;2024-01-07T14:21:36;1.20;99.90
11399;DHT22;5755;48.116;11.608;2024-01-07T14:24:02;1.20;99.90
11399;DHT22;5755;48.116;11.608;2024-01-07T14:26:29;1.20;99.90
11399;DHT22;5755;48.116;11.608;2024-01-07T14:28:56;1.20;99.90
11399;DHT22;5755;48.116;11.608;2024-01-07T14:31:23;1.10;99.90
11399;DHT22;5755;48.116;11.608;2024-01-07T14:33:49;1.00;99.90
11399;DHT22;5755;48.116;11.608;2024-01-07T14:36:17;0.90;99.90
11399;DHT22;5755;48.116;11.608;2024-01-07T14:38:43;0.90;99.90
11399;DHT22;5755;48.116;11.608;2024-01-07T14:41:11;0.90;99.90
11399;DHT22;5755;48.116;11.608;2024-01-07T14:44:10;1.00;99.90
11399;DHT22;5755;48.116;11.608;2024-01-07T14:46:50;1.00;99.90
11399;DHT22;5755;48.116;11.608;2024-01-07T14:49:17;0.90;99.90
11399;DHT22;5755;48.116;11.608;2024-01-07T14:51:45;0.90;99.90
11399;DHT22;5755;48.116;11.608;2024-01-07T14:54:12;0.80;99.90
11399;DHT22;5755;48.116;11.608;2024-01-07T14:56:39;0.80;99.90
11399;DHT22;5755;48.116;11.608;2024-01-07T14:59:05;0.80;99.90
11399;DHT22;5755;48.116;11.608;2024-01-07T15:01:33;0.70;99.90
11399;DHT22;5755;48.116;11.608;2024-01-07T15:04:00;0.70;99.90
11399;DHT22;5755;48.116;11.608;2024-01-07T15:06:27;0.70;99.90
11399;DHT22;5755;48.116;11.608;2024-01-07T15:08:55;0.70;99.90
11399;DHT22;5755;48.116;11.608;2024-01-07T15:11:21;0.70;99.90
11399;DHT22;5755;48.116;11.608;2024-01-07T15:13:49;0.70;99.90
11399;DHT22;5755;48.116;11.608;2024-01-07T15:16:16;0.60;99.90
11399;DHT22;5755;48.116;11.608;2024-01-07T15:18:43;0.60;99.90
11399;DHT22;5755;48.116;11.608;2024-01-07T15:21:10;0.70;99.90
11399;DHT22;5755;48.116;11.608;2024-01-07T15:23:36;0.60;99.90
11399;DHT22;5755;48.116;11.608;2024-01-07T15:26:05;0.70;99.90
11399;DHT22;5755;48.116;11.608;2024-01-07T15:28:31;0.50;99.90
11399;DHT22;5755;48.116;11.608;2024-01-07T15:30:59;0.50;99.90
11399;DHT22;5755;48.116;11.608;2024-01-07T15:33:26;0.50;99.90
11399;DHT22;5755;48.116;11.608;2024-01-07T15:35:53;0.50;99.90
11399;DHT22;5755;48.116;11.608;2024-01-07T15:38:20;0.50;99.90
11399;DHT22;5755;48.116;11.608;2024-01-07T15:40:46;0.50;99.90
11399;DHT22;5755;48.116;11.608;2024-01-07T15:43:14;0.50;99.90
11399;DHT22;5755;48.116;11.608;2024-01-07T15:45:41;0.50;99.90
11399;DHT22;5755;48.116;11.608;2024-01-07T15:48:08;0.60;99.90